Darstellungsparameter: Aktuell verwendete Einstellungen:
Skalierung der Graphiken ... ?
xyx+y,   Skalierungsfaktor:      Skalierung: Modus: x, Faktor: 1
Darstellungszeitraum ... ?
Vom - - bis: - -   Zeitraum: 30.09.2017 - 30.09.2017
Min/Max/Avg-Anzeige ... ?
Zeige MMA aktuell
Zeige MMA Monat
Zeige MMA alles
Zeige --A aktuell
Zeige --A Monat
Zeige --A alles
Keine MMA-Anzeige
MMA:
Keine MMA-Graphiken
MMA-Basis: 30.09.2017 - 30.09.2017
Quicknavigation für Darstellung... ?
Tage:      1T, 2T, 3T, 5T -1T -2T -3T -5T +1T +2T +3T +5T
Wochen: 1W, 2W, 3W -1W -2W -3W +1W +2W +3W
Monate: 1M, 3M, 6M -1M -3M -6M +1M +3M +6M
Jahre:    1J, 3J, 5J, 10J -1J -3J -5J -10J +1J +3J +5J +10J
Nutze für die Darstellung ... ?
Originaldaten oder Mittelwerte auf ...
Stundenbasis Tagesbasis Wochenbasis
Monatsbasis Jahresbasis      Datenbasis: Original-Daten
Darstellen als:
Statistik (Auto) Statistik J:M      Darstellung:
Zur Graphik,    zurück zur Übersicht aller Sensoren.
 
Tabellarische Datenbersicht: ?
 
Sensor: Nr:Datum:Temp:Abs-Feuchte:Windchill:Wind:
Aussen-T/F 1 30-09-2017 00:00:00 16.6 C 13.14 g/m*3 16.6 C 0 km/h
2 30-09-2017 00:05:00 16.5 C 13.06 g/m*3 16.5 C 0 km/h
3 30-09-2017 00:10:00 16.4 C 12.98 g/m*3 16.4 C 0 km/h
4 30-09-2017 00:15:00 16.3 C 12.9 g/m*3 16.3 C 0 km/h
5 30-09-2017 00:20:00 16.2 C 12.82 g/m*3 16.2 C 0 km/h
6 30-09-2017 00:25:00 16.2 C 12.82 g/m*3 16.2 C 0 km/h
7 30-09-2017 00:30:00 16.1 C 12.75 g/m*3 16.1 C 0 km/h
8 30-09-2017 00:35:00 16.1 C 12.88 g/m*3 16.1 C 0 km/h
9 30-09-2017 00:40:00 16 C 12.81 g/m*3 16 C 0 km/h
10 30-09-2017 00:45:00 16 C 12.81 g/m*3 16 C 0 km/h
11 30-09-2017 00:50:00 15.9 C 12.73 g/m*3 15.9 C 0 km/h
12 30-09-2017 00:55:00 15.9 C 12.73 g/m*3 15.9 C 0 km/h
13 30-09-2017 01:00:00 15.9 C 12.73 g/m*3 15.9 C 0 km/h
14 30-09-2017 01:05:00 15.9 C 12.73 g/m*3 15.9 C 0 km/h
15 30-09-2017 01:10:00 15.9 C 12.87 g/m*3 15.9 C 0 km/h
16 30-09-2017 01:15:00 15.9 C 12.73 g/m*3 15.9 C 0 km/h
17 30-09-2017 01:20:00 15.9 C 12.73 g/m*3 15.9 C 0 km/h
18 30-09-2017 01:25:00 15.9 C 12.73 g/m*3 15.9 C 0 km/h
19 30-09-2017 01:30:00 15.8 C 12.65 g/m*3 15.8 C 0 km/h
20 30-09-2017 01:35:00 15.8 C 12.79 g/m*3 15.8 C 0 km/h
21 30-09-2017 01:40:00 15.8 C 12.79 g/m*3 15.8 C 0 km/h
22 30-09-2017 01:45:00 15.8 C 12.79 g/m*3 15.8 C 0 km/h
23 30-09-2017 01:50:00 15.8 C 12.79 g/m*3 15.8 C 0 km/h
24 30-09-2017 01:55:00 15.8 C 12.79 g/m*3 15.8 C 0 km/h
25 30-09-2017 02:00:00 15.8 C 12.79 g/m*3 15.8 C 0 km/h
Sensor: Nr:Datum:Temp:Abs-Feuchte:Windchill:Wind:
Aussen-T/F 26 30-09-2017 02:05:00 15.7 C 12.71 g/m*3 15.7 C 0 km/h
27 30-09-2017 02:10:00 15.7 C 12.71 g/m*3 15.7 C 0 km/h
28 30-09-2017 02:15:00 15.6 C 12.63 g/m*3 15.6 C 0 km/h
29 30-09-2017 02:20:00 15.6 C 12.63 g/m*3 15.6 C 0 km/h
30 30-09-2017 02:25:00 15.6 C 12.63 g/m*3 15.6 C 0 km/h
31 30-09-2017 02:30:00 15.6 C 12.63 g/m*3 15.6 C 0 km/h
32 30-09-2017 02:35:00 15.6 C 12.63 g/m*3 15.6 C 0 km/h
33 30-09-2017 02:40:00 15.6 C 12.63 g/m*3 15.6 C 0 km/h
34 30-09-2017 02:45:00 15.6 C 12.63 g/m*3 15.6 C 0 km/h
35 30-09-2017 02:50:00 15.5 C 12.56 g/m*3 15.5 C 0 km/h
36 30-09-2017 02:55:00 15.4 C 12.48 g/m*3 15.4 C 0 km/h
37 30-09-2017 03:00:00 15.3 C 12.41 g/m*3 15.3 C 0 km/h
38 30-09-2017 03:05:00 15.2 C 12.33 g/m*3 15.2 C 0 km/h
39 30-09-2017 03:10:00 15.2 C 12.33 g/m*3 15.2 C 0 km/h
40 30-09-2017 03:15:00 15.2 C 12.33 g/m*3 15.2 C 0 km/h
41 30-09-2017 03:20:00 15.1 C 12.26 g/m*3 15.1 C 0 km/h
42 30-09-2017 03:25:00 15.1 C 12.26 g/m*3 15.1 C 0 km/h
43 30-09-2017 03:30:00 15.1 C 12.26 g/m*3 15.1 C 0 km/h
44 30-09-2017 03:35:00 15 C 12.18 g/m*3 15 C 0 km/h
45 30-09-2017 03:40:00 15 C 12.18 g/m*3 15 C 0 km/h
46 30-09-2017 03:45:00 14.9 C 12.11 g/m*3 14.9 C 0 km/h
47 30-09-2017 03:50:00 15 C 12.31 g/m*3 15 C 0 km/h
48 30-09-2017 03:55:00 15.1 C 12.39 g/m*3 15.1 C 0 km/h
49 30-09-2017 04:00:00 15.1 C 12.39 g/m*3 15.1 C 0 km/h
50 30-09-2017 04:05:00 15.1 C 12.39 g/m*3 15.1 C 0 km/h
Sensor: Nr:Datum:Temp:Abs-Feuchte:Windchill:Wind:
Aussen-T/F 51 30-09-2017 04:10:00 15.1 C 12.39 g/m*3 15.1 C 0 km/h
52 30-09-2017 04:15:00 15.1 C 12.39 g/m*3 15.1 C 0 km/h
53 30-09-2017 04:20:00 15.1 C 12.39 g/m*3 15.1 C 0 km/h
54 30-09-2017 04:25:00 15.2 C 12.46 g/m*3 15.2 C 0 km/h
55 30-09-2017 04:30:00 15.3 C 12.54 g/m*3 15.3 C 0 km/h
56 30-09-2017 04:35:00 15.3 C 12.54 g/m*3 15.3 C 0 km/h
57 30-09-2017 04:40:00 15.3 C 12.54 g/m*3 15.3 C 0 km/h
58 30-09-2017 04:45:00 15.4 C 12.61 g/m*3 15.4 C 0 km/h
59 30-09-2017 04:50:00 15.4 C 12.61 g/m*3 15.4 C 0 km/h
60 30-09-2017 04:55:00 15.4 C 12.61 g/m*3 15.4 C 0 km/h
61 30-09-2017 05:00:00 15.4 C 12.61 g/m*3 15.4 C 0 km/h
62 30-09-2017 05:05:00 15.4 C 12.61 g/m*3 15.4 C 0 km/h
63 30-09-2017 05:10:00 15.4 C 12.61 g/m*3 15.4 C 0 km/h
64 30-09-2017 05:15:00 15.4 C 12.61 g/m*3 15.4 C 0 km/h
65 30-09-2017 05:20:00 15.4 C 12.61 g/m*3 15.4 C 0 km/h
66 30-09-2017 05:25:00 15.4 C 12.61 g/m*3 15.4 C 0 km/h
67 30-09-2017 05:30:00 15.4 C 12.61 g/m*3 15.4 C 0 km/h
68 30-09-2017 05:35:00 15.4 C 12.61 g/m*3 15.4 C 0 km/h
69 30-09-2017 05:40:00 15.3 C 12.54 g/m*3 15.3 C 0 km/h
70 30-09-2017 05:45:00 15.3 C 12.54 g/m*3 15.3 C 0 km/h
71 30-09-2017 05:50:00 15.3 C 12.54 g/m*3 15.3 C 0 km/h
72 30-09-2017 05:55:00 15.3 C 12.54 g/m*3 15.3 C 0 km/h
73 30-09-2017 06:00:00 15.4 C 12.61 g/m*3 15.4 C 0 km/h
74 30-09-2017 06:05:00 15.4 C 12.61 g/m*3 15.4 C 0 km/h
75 30-09-2017 06:10:00 15.4 C 12.61 g/m*3 15.4 C 0 km/h
Sensor: Nr:Datum:Temp:Abs-Feuchte:Windchill:Wind:
Aussen-T/F 76 30-09-2017 06:15:00 15.3 C 12.54 g/m*3 15.3 C 0 km/h
77 30-09-2017 06:20:00 15.3 C 12.54 g/m*3 15.3 C 0 km/h
78 30-09-2017 06:25:00 15.3 C 12.54 g/m*3 15.3 C 0 km/h
79 30-09-2017 06:30:00 15.3 C 12.54 g/m*3 15.3 C 0 km/h
80 30-09-2017 06:35:00 15.3 C 12.54 g/m*3 15.3 C 0 km/h
81 30-09-2017 06:40:00 15.3 C 12.54 g/m*3 15.3 C 0 km/h
82 30-09-2017 06:45:00 15.3 C 12.54 g/m*3 15.3 C 0 km/h
83 30-09-2017 06:50:00 15.3 C 12.54 g/m*3 15.3 C 0 km/h
84 30-09-2017 06:55:00 15.3 C 12.54 g/m*3 15.3 C 0 km/h
85 30-09-2017 07:00:00 15.2 C 12.46 g/m*3 15.2 C 0 km/h
86 30-09-2017 07:05:00 15.2 C 12.46 g/m*3 15.2 C 0 km/h
87 30-09-2017 07:10:00 15.2 C 12.46 g/m*3 15.2 C 0 km/h
88 30-09-2017 07:15:00 15.1 C 12.39 g/m*3 15.1 C 0 km/h
89 30-09-2017 07:20:00 15.1 C 12.39 g/m*3 15.1 C 0 km/h
90 30-09-2017 07:25:00 15.2 C 12.59 g/m*3 15.2 C 0 km/h
91 30-09-2017 07:30:00 15.3 C 12.67 g/m*3 15.3 C 0 km/h
92 30-09-2017 07:35:00 15.3 C 12.67 g/m*3 15.3 C 0 km/h
93 30-09-2017 07:40:00 15.2 C 12.59 g/m*3 15.2 C 0 km/h
94 30-09-2017 07:45:00 15.2 C 12.59 g/m*3 15.2 C 0 km/h
95 30-09-2017 07:50:00 15.2 C 12.59 g/m*3 15.2 C 0 km/h
96 30-09-2017 07:55:00 15.2 C 12.59 g/m*3 15.2 C 0 km/h
97 30-09-2017 08:00:00 15.1 C 12.51 g/m*3 15.1 C 0 km/h
98 30-09-2017 08:05:00 15.1 C 12.39 g/m*3 15.1 C 0 km/h
99 30-09-2017 08:10:00 15.1 C 12.39 g/m*3 15.1 C 0 km/h
100 30-09-2017 08:15:00 15.1 C 12.39 g/m*3 15.1 C 0 km/h
Sensor: Nr:Datum:Temp:Abs-Feuchte:Windchill:Wind:
Aussen-T/F 101 30-09-2017 08:20:00 15.2 C 12.59 g/m*3 15.2 C 0 km/h
102 30-09-2017 08:25:00 15.2 C 12.59 g/m*3 15.2 C 0 km/h
103 30-09-2017 08:30:00 15.2 C 12.59 g/m*3 15.2 C 0 km/h
104 30-09-2017 08:35:00 15.3 C 12.67 g/m*3 15.3 C 0 km/h
105 30-09-2017 08:40:00 15.4 C 12.74 g/m*3 15.4 C 11.3 km/h
106 30-09-2017 08:45:00 15.4 C 12.74 g/m*3 15.4 C 6.4 km/h
107 30-09-2017 08:50:00 15.5 C 12.82 g/m*3 15.5 C 0 km/h
108 30-09-2017 08:55:00 15.6 C 12.9 g/m*3 15.6 C 0 km/h
109 30-09-2017 09:00:00 15.6 C 12.9 g/m*3 15.6 C 0 km/h
110 30-09-2017 09:05:00 15.6 C 12.9 g/m*3 15.6 C 0 km/h
111 30-09-2017 09:10:00 15.7 C 12.98 g/m*3 15.7 C 0 km/h
112 30-09-2017 09:15:00 15.7 C 12.98 g/m*3 15.7 C 0 km/h
113 30-09-2017 09:20:00 15.7 C 12.98 g/m*3 15.7 C 0 km/h
114 30-09-2017 09:25:00 15.8 C 13.06 g/m*3 15.8 C 0 km/h
115 30-09-2017 09:30:00 15.8 C 13.06 g/m*3 15.8 C 0 km/h
116 30-09-2017 09:35:00 16 C 13.22 g/m*3 16 C 0 km/h
117 30-09-2017 09:40:00 16 C 13.22 g/m*3 16 C 0 km/h
118 30-09-2017 09:45:00 16 C 13.22 g/m*3 16 C 0 km/h
119 30-09-2017 09:50:00 16 C 13.22 g/m*3 16 C 4.8 km/h
120 30-09-2017 09:55:00 15.9 C 13.14 g/m*3 15.9 C 0 km/h
121 30-09-2017 10:00:00 15.9 C 13.14 g/m*3 15.9 C 0 km/h
122 30-09-2017 10:05:00 15.9 C 13.14 g/m*3 15.9 C 0 km/h
123 30-09-2017 10:10:00 16 C 13.22 g/m*3 16 C 0 km/h
124 30-09-2017 10:15:00 16.1 C 13.3 g/m*3 16.1 C 0 km/h
125 30-09-2017 10:20:00 16.2 C 13.38 g/m*3 16.2 C 0 km/h
Sensor: Nr:Datum:Temp:Abs-Feuchte:Windchill:Wind:
Aussen-T/F 126 30-09-2017 10:25:00 16.3 C 13.46 g/m*3 16.3 C 0 km/h
127 30-09-2017 10:30:00 16.4 C 13.54 g/m*3 16.4 C 0 km/h
128 30-09-2017 10:35:00 16.4 C 13.54 g/m*3 16.4 C 0 km/h
129 30-09-2017 10:40:00 16.4 C 13.4 g/m*3 16.4 C 0 km/h
130 30-09-2017 10:45:00 16.5 C 13.48 g/m*3 16.5 C 0 km/h
131 30-09-2017 10:50:00 16.7 C 13.64 g/m*3 16.7 C 0 km/h
132 30-09-2017 10:55:00 16.8 C 13.73 g/m*3 16.8 C 0 km/h
133 30-09-2017 11:00:00 16.9 C 13.81 g/m*3 16.9 C 0 km/h
134 30-09-2017 11:05:00 17.1 C 13.97 g/m*3 17.1 C 0 km/h
135 30-09-2017 11:10:00 17.2 C 13.91 g/m*3 17.2 C 0 km/h
136 30-09-2017 11:15:00 17.2 C 13.91 g/m*3 17.2 C 0 km/h
137 30-09-2017 11:20:00 17.3 C 14 g/m*3 17.3 C 0 km/h
138 30-09-2017 11:25:00 17.4 C 13.93 g/m*3 17.4 C 0 km/h
139 30-09-2017 11:30:00 17.4 C 13.93 g/m*3 17.4 C 0 km/h
140 30-09-2017 11:35:00 17.6 C 14.1 g/m*3 17.6 C 0 km/h
141 30-09-2017 11:40:00 17.6 C 14.1 g/m*3 17.6 C 0 km/h
142 30-09-2017 11:45:00 17.7 C 14.18 g/m*3 17.7 C 0 km/h
143 30-09-2017 11:50:00 17.7 C 14.18 g/m*3 17.7 C 0 km/h
144 30-09-2017 11:55:00 17.7 C 14.03 g/m*3 17.7 C 0 km/h
145 30-09-2017 12:00:00 17.7 C 14.03 g/m*3 17.7 C 0 km/h
146 30-09-2017 12:05:00 17.7 C 14.03 g/m*3 17.7 C 0 km/h
147 30-09-2017 12:10:00 17.7 C 14.03 g/m*3 17.7 C 0 km/h
148 30-09-2017 12:15:00 17.6 C 13.95 g/m*3 17.6 C 0 km/h
149 30-09-2017 12:20:00 17.6 C 13.95 g/m*3 17.6 C 0 km/h
150 30-09-2017 12:25:00 17.6 C 13.95 g/m*3 17.6 C 0 km/h
Sensor: Nr:Datum:Temp:Abs-Feuchte:Windchill:Wind:
Aussen-T/F 151 30-09-2017 12:30:00 17.6 C 13.95 g/m*3 17.6 C 0 km/h
152 30-09-2017 12:35:00 17.6 C 13.95 g/m*3 17.6 C 0 km/h
153 30-09-2017 12:40:00 17.6 C 13.95 g/m*3 17.6 C 0 km/h
154 30-09-2017 12:45:00 17.6 C 13.95 g/m*3 17.6 C 0 km/h
155 30-09-2017 12:50:00 17.7 C 14.03 g/m*3 17.7 C 0 km/h
156 30-09-2017 12:55:00 17.7 C 14.03 g/m*3 17.7 C 0 km/h
157 30-09-2017 13:00:00 17.7 C 14.03 g/m*3 17.7 C 8.1 km/h
158 30-09-2017 13:05:00 17.7 C 14.03 g/m*3 17.7 C 0 km/h
159 30-09-2017 13:10:00 17.8 C 14.12 g/m*3 17.8 C 4.8 km/h
160 30-09-2017 13:15:00 17.8 C 14.12 g/m*3 17.8 C 4.8 km/h
161 30-09-2017 13:20:00 17.8 C 14.12 g/m*3 17.8 C 6.4 km/h
162 30-09-2017 13:25:00 17.8 C 14.12 g/m*3 17.8 C 3.2 km/h
163 30-09-2017 13:30:00 17.8 C 14.12 g/m*3 17.8 C 3.2 km/h
164 30-09-2017 13:35:00 17.8 C 13.96 g/m*3 17.8 C 0 km/h
165 30-09-2017 13:40:00 17.7 C 13.88 g/m*3 17.7 C 0 km/h
166 30-09-2017 13:45:00 17.7 C 13.88 g/m*3 17.7 C 0 km/h
167 30-09-2017 13:50:00 17.6 C 13.8 g/m*3 17.6 C 22.5 km/h
168 30-09-2017 13:55:00 16.4 C 12.14 g/m*3 16.4 C 22.5 km/h
169 30-09-2017 14:00:00 15.4 C 11.56 g/m*3 15.4 C 24.1 km/h
170 30-09-2017 14:05:00 15 C 11.54 g/m*3 15 C 4.8 km/h
171 30-09-2017 14:10:00 14.8 C 11.65 g/m*3 14.8 C 1.6 km/h
172 30-09-2017 14:15:00 14.7 C 11.71 g/m*3 14.7 C 1.6 km/h
173 30-09-2017 14:20:00 14.6 C 11.64 g/m*3 14.6 C 3.2 km/h
174 30-09-2017 14:25:00 14.4 C 11.5 g/m*3 14.4 C 4.8 km/h
175 30-09-2017 14:30:00 14.3 C 11.43 g/m*3 14.3 C 1.6 km/h
Sensor: Nr:Datum:Temp:Abs-Feuchte:Windchill:Wind:
Aussen-T/F 176 30-09-2017 14:35:00 14.4 C 11.62 g/m*3 14.4 C 0 km/h
177 30-09-2017 14:40:00 14.4 C 11.62 g/m*3 14.4 C 4.8 km/h
178 30-09-2017 14:45:00 14.3 C 11.55 g/m*3 14.3 C 8.1 km/h
179 30-09-2017 14:50:00 14.2 C 11.48 g/m*3 14.2 C 4.8 km/h
180 30-09-2017 14:55:00 14.1 C 11.41 g/m*3 14.1 C 4.8 km/h
181 30-09-2017 15:00:00 14 C 11.34 g/m*3 14 C 1.6 km/h
182 30-09-2017 15:05:00 14 C 11.34 g/m*3 14 C 8.1 km/h
183 30-09-2017 15:10:00 13.9 C 11.15 g/m*3 13.9 C 6.4 km/h
184 30-09-2017 15:15:00 13.9 C 11.27 g/m*3 13.9 C 3.2 km/h
185 30-09-2017 15:20:00 13.8 C 11.08 g/m*3 13.8 C 11.3 km/h
186 30-09-2017 15:25:00 13.7 C 11.01 g/m*3 13.7 C 11.3 km/h
187 30-09-2017 15:30:00 13.7 C 11.01 g/m*3 13.7 C 6.4 km/h
188 30-09-2017 15:35:00 13.6 C 10.95 g/m*3 13.6 C 8.1 km/h
189 30-09-2017 15:40:00 13.5 C 10.88 g/m*3 13.5 C 6.4 km/h
190 30-09-2017 15:45:00 13.4 C 10.81 g/m*3 13.4 C 4.8 km/h
191 30-09-2017 15:50:00 13.4 C 10.81 g/m*3 13.4 C 3.2 km/h
192 30-09-2017 15:55:00 13.3 C 10.74 g/m*3 13.3 C 4.8 km/h
193 30-09-2017 16:00:00 13.3 C 10.86 g/m*3 13.3 C 1.6 km/h
194 30-09-2017 16:05:00 13.3 C 10.86 g/m*3 13.3 C 1.6 km/h
195 30-09-2017 16:10:00 13.3 C 10.86 g/m*3 13.3 C 1.6 km/h
196 30-09-2017 16:15:00 13.3 C 10.86 g/m*3 13.3 C 3.2 km/h
197 30-09-2017 16:20:00 13.3 C 10.86 g/m*3 13.3 C 3.2 km/h
198 30-09-2017 16:25:00 13.3 C 10.98 g/m*3 13.3 C 0 km/h
199 30-09-2017 16:30:00 13.4 C 11.04 g/m*3 13.4 C 1.6 km/h
200 30-09-2017 16:35:00 13.3 C 10.98 g/m*3 13.3 C 3.2 km/h
Sensor: Nr:Datum:Temp:Abs-Feuchte:Windchill:Wind:
Aussen-T/F 201 30-09-2017 16:40:00 13.3 C 10.98 g/m*3 13.3 C 3.2 km/h
202 30-09-2017 16:45:00 13.3 C 10.98 g/m*3 13.3 C 1.6 km/h
203 30-09-2017 16:50:00 13.3 C 10.98 g/m*3 13.3 C 3.2 km/h
204 30-09-2017 16:55:00 13.3 C 10.98 g/m*3 13.3 C 0 km/h
205 30-09-2017 17:00:00 13.3 C 11.09 g/m*3 13.3 C 0 km/h
206 30-09-2017 17:05:00 13.3 C 11.09 g/m*3 13.3 C 0 km/h
207 30-09-2017 17:10:00 13.3 C 10.98 g/m*3 13.3 C 0 km/h
208 30-09-2017 17:15:00 13.3 C 10.98 g/m*3 13.3 C 0 km/h
209 30-09-2017 17:20:00 13.2 C 10.91 g/m*3 13.2 C 0 km/h
210 30-09-2017 17:25:00 13.2 C 11.02 g/m*3 13.2 C 0 km/h
211 30-09-2017 17:30:00 13.2 C 11.02 g/m*3 13.2 C 0 km/h
212 30-09-2017 17:35:00 13.2 C 11.02 g/m*3 13.2 C 0 km/h
213 30-09-2017 17:40:00 13.3 C 11.09 g/m*3 13.3 C 0 km/h
214 30-09-2017 17:45:00 13.2 C 11.02 g/m*3 13.2 C 0 km/h
215 30-09-2017 17:50:00 13.2 C 11.02 g/m*3 13.2 C 6.4 km/h
216 30-09-2017 17:55:00 13.1 C 10.84 g/m*3 13.1 C 0 km/h
217 30-09-2017 18:00:00 13.1 C 10.95 g/m*3 13.1 C 1.6 km/h
218 30-09-2017 18:05:00 13.1 C 10.95 g/m*3 13.1 C 0 km/h
219 30-09-2017 18:10:00 13.1 C 10.95 g/m*3 13.1 C 0 km/h
220 30-09-2017 18:15:00 13 C 10.89 g/m*3 13 C 0 km/h
221 30-09-2017 18:20:00 12.9 C 10.82 g/m*3 12.9 C 0 km/h
222 30-09-2017 18:25:00 12.9 C 10.82 g/m*3 12.9 C 1.6 km/h
223 30-09-2017 18:30:00 12.8 C 10.75 g/m*3 12.8 C 1.6 km/h
224 30-09-2017 18:35:00 12.7 C 10.69 g/m*3 12.7 C 1.6 km/h
225 30-09-2017 18:40:00 12.7 C 10.69 g/m*3 12.7 C 3.2 km/h
Sensor: Nr:Datum:Temp:Abs-Feuchte:Windchill:Wind:
Aussen-T/F 226 30-09-2017 18:45:00 12.6 C 10.62 g/m*3 12.6 C 9.7 km/h
227 30-09-2017 18:50:00 12.5 C 10.44 g/m*3 12.5 C 4.8 km/h
228 30-09-2017 18:55:00 12.5 C 10.55 g/m*3 12.5 C 3.2 km/h
229 30-09-2017 19:00:00 12.5 C 10.55 g/m*3 12.5 C 3.2 km/h
230 30-09-2017 19:05:00 12.6 C 10.62 g/m*3 12.6 C 0 km/h
231 30-09-2017 19:10:00 12.6 C 10.62 g/m*3 12.6 C 0 km/h
232 30-09-2017 19:15:00 12.6 C 10.62 g/m*3 12.6 C 1.6 km/h
233 30-09-2017 19:20:00 12.6 C 10.62 g/m*3 12.6 C 0 km/h
234 30-09-2017 19:25:00 12.6 C 10.62 g/m*3 12.6 C 4.8 km/h
235 30-09-2017 19:30:00 12.6 C 10.62 g/m*3 12.6 C 0 km/h
236 30-09-2017 19:35:00 12.5 C 10.55 g/m*3 12.5 C 0 km/h
237 30-09-2017 19:40:00 12.5 C 10.55 g/m*3 12.5 C 0 km/h
238 30-09-2017 19:45:00 12.4 C 10.49 g/m*3 12.4 C 1.6 km/h
239 30-09-2017 19:50:00 12.3 C 10.42 g/m*3 12.3 C 1.6 km/h
240 30-09-2017 19:55:00 12.3 C 10.42 g/m*3 12.3 C 0 km/h
241 30-09-2017 20:00:00 12.3 C 10.42 g/m*3 12.3 C 0 km/h
242 30-09-2017 20:05:00 12.2 C 10.36 g/m*3 12.2 C 0 km/h
243 30-09-2017 20:10:00 12.2 C 10.36 g/m*3 12.2 C 0 km/h
244 30-09-2017 20:15:00 12.1 C 10.29 g/m*3 12.1 C 0 km/h
245 30-09-2017 20:20:00 12.1 C 10.29 g/m*3 12.1 C 0 km/h
246 30-09-2017 20:25:00 12 C 10.23 g/m*3 12 C 0 km/h
247 30-09-2017 20:30:00 12 C 10.23 g/m*3 12 C 0 km/h
248 30-09-2017 20:35:00 11.9 C 10.17 g/m*3 11.9 C 0 km/h
249 30-09-2017 20:40:00 11.9 C 10.17 g/m*3 11.9 C 0 km/h
250 30-09-2017 20:45:00 11.8 C 10.1 g/m*3 11.8 C 0 km/h
Sensor: Nr:Datum:Temp:Abs-Feuchte:Windchill:Wind:
Aussen-T/F 251 30-09-2017 20:50:00 11.8 C 10.1 g/m*3 11.8 C 0 km/h
252 30-09-2017 20:55:00 11.8 C 10.1 g/m*3 11.8 C 0 km/h
253 30-09-2017 21:00:00 11.7 C 10.04 g/m*3 11.7 C 0 km/h
254 30-09-2017 21:05:00 11.7 C 10.04 g/m*3 11.7 C 0 km/h
255 30-09-2017 21:10:00 11.7 C 10.04 g/m*3 11.7 C 0 km/h
256 30-09-2017 21:15:00 11.6 C 9.98 g/m*3 11.6 C 0 km/h
257 30-09-2017 21:20:00 11.6 C 9.98 g/m*3 11.6 C 0 km/h
258 30-09-2017 21:25:00 11.5 C 9.92 g/m*3 11.5 C 0 km/h
259 30-09-2017 21:30:00 11.5 C 9.92 g/m*3 11.5 C 0 km/h
260 30-09-2017 21:35:00 11.4 C 9.85 g/m*3 11.4 C 0 km/h
261 30-09-2017 21:40:00 11.4 C 9.85 g/m*3 11.4 C 0 km/h
262 30-09-2017 21:45:00 11.3 C 9.79 g/m*3 11.3 C 0 km/h
263 30-09-2017 21:50:00 11.3 C 9.79 g/m*3 11.3 C 0 km/h
264 30-09-2017 21:55:00 11.3 C 9.79 g/m*3 11.3 C 0 km/h
265 30-09-2017 22:00:00 11.3 C 9.79 g/m*3 11.3 C 0 km/h
266 30-09-2017 22:05:00 11.3 C 9.79 g/m*3 11.3 C 0 km/h
267 30-09-2017 22:10:00 11.2 C 9.73 g/m*3 11.2 C 0 km/h
268 30-09-2017 22:15:00 11.2 C 9.73 g/m*3 11.2 C 0 km/h
269 30-09-2017 22:20:00 11.1 C 9.67 g/m*3 11.1 C 0 km/h
270 30-09-2017 22:25:00 11.1 C 9.67 g/m*3 11.1 C 0 km/h
271 30-09-2017 22:30:00 11 C 9.61 g/m*3 11 C 0 km/h
272 30-09-2017 22:35:00 11 C 9.61 g/m*3 11 C 0 km/h
273 30-09-2017 22:40:00 10.9 C 9.55 g/m*3 10.9 C 0 km/h
274 30-09-2017 22:45:00 10.9 C 9.55 g/m*3 10.9 C 0 km/h
275 30-09-2017 22:50:00 10.9 C 9.55 g/m*3 10.9 C 0 km/h
Sensor: Nr:Datum:Temp:Abs-Feuchte:Windchill:Wind:
Aussen-T/F 276 30-09-2017 22:55:00 10.9 C 9.55 g/m*3 10.9 C 0 km/h
277 30-09-2017 23:00:00 10.9 C 9.55 g/m*3 10.9 C 0 km/h
278 30-09-2017 23:05:00 10.9 C 9.55 g/m*3 10.9 C 0 km/h
279 30-09-2017 23:10:00 10.9 C 9.55 g/m*3 10.9 C 0 km/h
280 30-09-2017 23:15:00 10.9 C 9.65 g/m*3 10.9 C 0 km/h
281 30-09-2017 23:20:00 10.9 C 9.65 g/m*3 10.9 C 0 km/h
282 30-09-2017 23:25:00 10.9 C 9.65 g/m*3 10.9 C 0 km/h
283 30-09-2017 23:30:00 10.9 C 9.65 g/m*3 10.9 C 0 km/h
284 30-09-2017 23:35:00 11 C 9.71 g/m*3 11 C 0 km/h
285 30-09-2017 23:40:00 11.1 C 9.77 g/m*3 11.1 C 0 km/h
286 30-09-2017 23:45:00 11.1 C 9.77 g/m*3 11.1 C 0 km/h
287 30-09-2017 23:50:00 11.1 C 9.77 g/m*3 11.1 C 0 km/h
288 30-09-2017 23:55:00 11.1 C 9.77 g/m*3 11.1 C 0 km/h

Legende:
   Min
   Max


Maximal/Minimal-Werte vom 30.09.2017 - 30.09.2017

Sensor Min Max Avg
Temp
(Aussen-T/F)
10.9 °C
30-09-2017  22:40:00
17.8 °C
30-09-2017  13:10:00
14.57 °C
Abs-Feuchte
(Aussen-T/F)
9.55 g/m*3
30-09-2017  22:40:00
14.18 g/m*3
30-09-2017  11:45:00
11.92 g/m*3
Windchill
(Aussen-T/F)
10.9 C
30-09-2017  22:40:00
17.8 C
30-09-2017  13:10:00
14.52 C

Die Daten stammen von einer Davis Vantage Pro 2 Wetter-Station und werden unter Linux mit der Software wview2wettercgi und aufbereitet. Alle Angaben erfolgen ohne Gewähr für ihre Vollständigkeit oder Richtigkeit.
Kontakt: Rainer Krienke krienke@uni-koblenz.de . Meine Webseiten an der Uni Koblenz oder privat.
Version: $Revision: 0.78 $